Aérodrome :
LOGIN :

S'inscrire | Disclaimer

   EN    FR    IT 

 










Légende :    VFR   VFR Marginal   IFR   IFR Intensif   IFR Très Intensif
Visi : 
Plafond : 
>= 8 km
>= 3000ft
5 à 8 km
1000 à 3000 ft
1500m à 5 km
500 à 1000 ft
800 à 1500m
200 à 500 ft
< 800m
< 200 ft
Symboles :   Orages  Brouillard  Fortes neiges  Fortes précipitations  Vent > 20 kt
SIGMETs :   Divers  Orages  Givrage  Turbulence  Onde Orograph.  Cendres Volcan.







- Altitude de l'aérodrome : 1 ft
- Voir les cartes d'approche


EGCK - Caernarfon

DERNIER METAR :
  • 200920Z 29011KT 6000 -RA BKN005 OVC019 16/15 Q1004

METARs EXPIRÉS :
  • 200850Z 29011KT 9999 BKN006 BKN020 16/14 Q1003
  • 200820Z 27013KT 9999 BKN007 BKN015 OVC023 16/15 Q1003
  • 200750Z AUTO 26017KT 3100 RA BKN002/// OVC014/// 15/14 Q1002
  • 200720Z AUTO 24015KT 9999 FEW002/// OVC007/// 15/15 Q1002 RERA
  • 200650Z AUTO 23015KT 9999 BKN006/// OVC015/// 15/14 Q1001

TAF TAF EGCK
Valide du 20 à 09h jusqu'au 20 à 18h UTC


200800Z 2009/2018 23015KT 9999 SCT020
BECMG 2009/2012 29008KT
TEMPO 2009/2011 7000 -RA BKN008
Pas de NOTAMs connus pour ce terrain.



MET'MAP, la Météo Aéronautique d'un coup d'oeil ! - Copyright ORBIFLY Décembre 2007 - Disclaimer

ORBIFLY MET'MAP TEAM :

Programmation & Développement : Alexandra Zaïnal
Conception & Développement : Baudouin d'Aumeries
Co-Programmation & Développement : Marc-Olivier Méhu
Soutien technique & logistique : Manuel Goepfert

Contact : metmap@orbifly.com




SOURCES & CREDITS :

   NOAA